createdAt,value
2022-08-11T00:02:34.214Z,5.28
2022-08-11T00:05:07.140Z,4.45
2022-08-11T00:07:36.720Z,5.63
2022-08-11T00:10:05.215Z,6.80
2022-08-11T00:12:33.584Z,7.78
2022-08-11T00:15:03.140Z,6.20
2022-08-11T00:17:33.828Z,4.00
2022-08-11T00:20:15.055Z,6.55
2022-08-11T00:22:47.374Z,5.97
2022-08-11T00:25:17.758Z,6.25
2022-08-11T00:27:47.110Z,6.13
2022-08-11T00:30:16.617Z,5.97
2022-08-11T00:32:53.756Z,5.88
2022-08-11T00:35:53.703Z,5.38
2022-08-11T00:38:18.208Z,6.55
2022-08-11T00:40:53.314Z,5.63
2022-08-11T00:43:27.614Z,5.97
2022-08-11T00:46:15.836Z,6.20
2022-08-11T00:48:54.766Z,6.72
2022-08-11T00:52:04.270Z,4.28
2022-08-11T00:54:44.980Z,5.50
2022-08-11T00:57:52.156Z,5.22
2022-08-11T01:00:23.278Z,4.60
2022-08-11T01:03:19.228Z,8.73
2022-08-11T01:06:01.984Z,6.53
2022-08-11T01:09:22.235Z,7.38
2022-08-11T01:12:22.653Z,6.43
2022-08-11T01:15:42.446Z,8.10
2022-08-11T01:19:14.661Z,7.40
2022-08-11T01:22:21.350Z,8.95
2022-08-11T01:25:19.857Z,7.40
2022-08-11T01:28:22.956Z,12.77
2022-08-11T01:31:31.437Z,14.85
2022-08-11T01:34:30.054Z,7.00
2022-08-11T01:37:27.989Z,10.05
2022-08-11T01:40:26.428Z,5.75
2022-08-11T01:43:53.840Z,7.35
2022-08-11T01:46:28.382Z,10.57
2022-08-11T01:50:05.870Z,11.07
2022-08-11T01:52:09.525Z,19.92
2022-08-11T01:54:44.675Z,9.85
2022-08-11T01:57:22.613Z,14.75
2022-08-11T01:59:55.520Z,16.65
2022-08-11T02:02:47.817Z,14.55
2022-08-11T02:05:29.923Z,10.75
2022-08-11T02:08:06.587Z,14.30
2022-08-11T02:11:08.484Z,11.77
2022-08-11T02:13:48.873Z,12.20
2022-08-11T02:16:23.464Z,15.90
2022-08-11T02:19:13.668Z,9.52
2022-08-11T02:22:05.349Z,9.88
2022-08-11T02:24:42.367Z,10.90
2022-08-11T02:27:17.371Z,7.00
2022-08-11T02:29:52.607Z,6.97
2022-08-11T02:32:45.434Z,9.48
2022-08-11T02:35:19.919Z,11.35
2022-08-11T02:37:54.411Z,12.27
2022-08-11T02:40:39.504Z,9.80
2022-08-11T02:43:15.017Z,9.77
2022-08-11T02:46:02.271Z,10.57
2022-08-11T02:49:09.075Z,6.68
2022-08-11T02:51:43.315Z,11.82
2022-08-11T02:54:18.583Z,9.80
2022-08-11T02:56:55.632Z,10.88
2022-08-11T02:59:52.346Z,11.60
2022-08-11T03:02:41.132Z,10.70
2022-08-11T03:05:22.357Z,12.65
2022-08-11T03:08:12.472Z,7.82
2022-08-11T03:11:11.354Z,7.72
2022-08-11T03:14:02.202Z,8.00
2022-08-11T03:16:48.453Z,12.85
2022-08-11T03:19:23.965Z,8.60
2022-08-11T03:22:09.353Z,10.88
2022-08-11T03:24:52.358Z,12.25
2022-08-11T03:27:36.714Z,13.60
2022-08-11T03:30:13.886Z,12.93
2022-08-11T03:33:06.836Z,9.20
2022-08-11T03:35:40.213Z,7.63
2022-08-11T03:38:13.806Z,13.07
2022-08-11T03:42:03.579Z,13.10
2022-08-11T03:44:08.856Z,7.00
2022-08-11T03:46:54.804Z,8.68
2022-08-11T03:49:32.327Z,8.50
2022-08-11T03:52:14.211Z,9.05
2022-08-11T03:54:51.788Z,8.30
2022-08-11T03:57:51.144Z,10.50
2022-08-11T04:00:31.149Z,11.80
2022-08-11T04:03:46.877Z,9.77
2022-08-11T04:06:47.465Z,11.38
2022-08-11T04:09:54.988Z,8.98
2022-08-11T04:12:55.452Z,13.27
2022-08-11T04:16:11.849Z,11.85
2022-08-11T04:19:22.482Z,9.63
2022-08-11T04:22:23.331Z,9.75
2022-08-11T04:25:30.050Z,11.25
2022-08-11T04:28:32.070Z,11.48
2022-08-11T04:31:11.391Z,10.57
2022-08-11T04:34:01.507Z,8.43
2022-08-11T04:37:05.074Z,9.80
2022-08-11T04:39:55.416Z,19.38
2022-08-11T04:43:23.681Z,16.83
2022-08-11T04:46:06.851Z,13.63
2022-08-11T04:49:25.840Z,9.88
2022-08-11T04:52:44.741Z,12.32
2022-08-11T04:55:51.181Z,13.18
2022-08-11T04:58:44.351Z,11.75
2022-08-11T05:01:43.607Z,8.65
2022-08-11T05:04:49.420Z,10.13
2022-08-11T05:07:42.833Z,9.32
2022-08-11T05:10:29.829Z,12.95
2022-08-11T05:13:22.112Z,12.93
2022-08-11T05:16:11.915Z,7.72
2022-08-11T05:19:06.712Z,10.68
2022-08-11T05:22:04.816Z,11.32
2022-08-11T05:24:57.166Z,11.32
2022-08-11T05:27:51.629Z,10.35
2022-08-11T05:30:37.380Z,9.57
2022-08-11T05:33:28.409Z,11.05
2022-08-11T05:36:03.451Z,14.07
2022-08-11T05:38:52.485Z,9.85
2022-08-11T05:41:40.643Z,9.38
2022-08-11T05:44:29.854Z,18.17
2022-08-11T05:47:16.045Z,11.48
2022-08-11T05:50:08.116Z,14.57
2022-08-11T05:52:56.494Z,13.45
2022-08-11T05:56:01.773Z,9.00
2022-08-11T05:58:41.356Z,10.57
2022-08-11T06:01:12.849Z,10.13
2022-08-11T06:03:59.697Z,9.60
2022-08-11T06:06:30.081Z,9.20
2022-08-11T06:08:59.758Z,8.85
2022-08-11T06:11:42.971Z,9.80
2022-08-11T06:14:12.325Z,9.00
2022-08-11T06:16:43.031Z,8.77
2022-08-11T06:19:11.302Z,7.57
2022-08-11T06:21:39.468Z,9.30
2022-08-11T06:24:13.229Z,5.90
2022-08-11T06:27:01.566Z,14.38
2022-08-11T06:29:37.561Z,17.00
2022-08-11T06:32:17.601Z,15.70
2022-08-11T06:35:04.088Z,7.93
2022-08-11T06:37:43.574Z,7.43
2022-08-11T06:40:17.775Z,8.30
2022-08-11T06:42:52.690Z,8.85
2022-08-11T06:45:29.099Z,14.60
2022-08-11T06:48:01.039Z,8.63
2022-08-11T06:50:48.043Z,8.57
2022-08-11T06:53:18.984Z,10.40
2022-08-11T06:56:07.350Z,13.00
2022-08-11T06:58:57.238Z,13.05
2022-08-11T07:01:42.321Z,15.45
2022-08-11T07:04:23.686Z,9.25
2022-08-11T07:07:20.097Z,9.70
2022-08-11T07:10:39.769Z,13.93
2022-08-11T07:13:44.183Z,12.98
2022-08-11T07:16:18.560Z,12.45
2022-08-11T07:19:16.633Z,12.65
2022-08-11T07:22:05.365Z,7.60
2022-08-11T07:25:01.742Z,8.20
2022-08-11T07:28:00.939Z,14.38
2022-08-11T07:30:29.461Z,9.77
2022-08-11T07:33:00.472Z,15.43
2022-08-11T07:35:33.989Z,14.25
2022-08-11T07:38:20.647Z,11.13
2022-08-11T07:40:51.901Z,13.35
2022-08-11T07:43:20.052Z,13.48
2022-08-11T07:46:06.041Z,12.77
2022-08-11T07:48:53.459Z,14.95
2022-08-11T07:51:39.551Z,8.85
2022-08-11T07:54:16.942Z,12.57
2022-08-11T07:56:55.037Z,15.30
2022-08-11T08:00:04.258Z,9.23
2022-08-11T08:02:48.626Z,14.05
2022-08-11T08:05:36.189Z,7.85
2022-08-11T08:08:22.701Z,7.55
2022-08-11T08:11:10.929Z,8.32
2022-08-11T08:13:56.865Z,10.48
2022-08-11T08:16:42.343Z,11.73
2022-08-11T08:19:13.514Z,9.07
2022-08-11T08:21:42.141Z,8.77
2022-08-11T08:24:14.915Z,5.17
2022-08-11T08:27:00.372Z,7.68
2022-08-11T08:29:47.689Z,6.75
2022-08-11T08:32:18.677Z,7.35
2022-08-11T08:34:47.696Z,7.03
2022-08-11T08:37:46.177Z,4.55
2022-08-11T08:40:09.430Z,6.10
2022-08-11T08:42:45.225Z,5.70
2022-08-11T08:45:18.298Z,10.70
2022-08-11T08:47:53.452Z,4.93
2022-08-11T08:50:27.647Z,6.13
2022-08-11T08:53:00.882Z,6.38
2022-08-11T08:55:31.487Z,5.90
2022-08-11T08:58:01.926Z,3.80
2022-08-11T09:00:40.655Z,4.57
2022-08-11T09:03:36.415Z,7.35
2022-08-11T09:05:58.463Z,7.22
2022-08-11T09:08:27.529Z,7.40
2022-08-11T09:11:15.730Z,5.57
2022-08-11T09:14:05.509Z,4.55
2022-08-11T09:16:33.969Z,4.38
2022-08-11T09:19:02.862Z,4.70
2022-08-11T09:21:44.543Z,4.78
2022-08-11T09:24:36.246Z,6.05
2022-08-11T09:27:07.538Z,6.32
2022-08-11T09:29:38.975Z,5.95
2022-08-11T09:32:08.946Z,7.38
2022-08-11T09:34:38.278Z,5.10
2022-08-11T09:37:28.540Z,8.45
2022-08-11T09:40:29.992Z,5.18
2022-08-11T09:43:16.441Z,5.97
2022-08-11T09:45:50.544Z,4.55
2022-08-11T09:48:19.351Z,5.40
2022-08-11T09:50:52.125Z,6.88
2022-08-11T09:53:37.811Z,6.72
2022-08-11T09:56:30.473Z,6.32
2022-08-11T09:58:59.712Z,5.03
2022-08-11T10:01:32.141Z,5.20
2022-08-11T10:04:04.533Z,4.10
2022-08-11T10:06:54.061Z,5.20
2022-08-11T10:09:25.483Z,7.50
2022-08-11T10:11:57.982Z,4.25
2022-08-11T10:14:45.197Z,4.50
2022-08-11T10:17:17.057Z,5.05
2022-08-11T10:20:03.810Z,4.90
2022-08-11T10:22:51.989Z,5.88
2022-08-11T10:25:38.462Z,4.82
2022-08-11T10:28:28.840Z,5.25
2022-08-11T10:31:17.043Z,5.10
2022-08-11T10:34:03.672Z,5.93
2022-08-11T10:36:33.911Z,3.63
2022-08-11T10:39:07.012Z,5.15
2022-08-11T10:42:03.425Z,4.97
2022-08-11T10:44:40.094Z,4.40
2022-08-11T10:47:26.663Z,3.92
2022-08-11T10:50:11.680Z,3.88
2022-08-11T10:52:58.384Z,4.60
2022-08-11T10:55:45.858Z,4.00
2022-08-11T10:58:50.347Z,8.93
2022-08-11T11:01:34.522Z,4.45
2022-08-11T11:04:07.705Z,4.65
2022-08-11T11:06:44.714Z,4.68
2022-08-11T11:09:18.067Z,3.60
2022-08-11T11:12:08.046Z,4.63
2022-08-11T11:14:59.046Z,3.30
2022-08-11T11:17:50.617Z,3.50
2022-08-11T11:20:36.335Z,3.42
2022-08-11T11:23:11.035Z,3.22
2022-08-11T11:28:58.853Z,4.55
2022-08-11T11:31:36.459Z,4.22
2022-08-11T11:34:22.788Z,3.63
2022-08-11T11:36:54.913Z,5.03
2022-08-11T11:39:26.497Z,5.63
2022-08-11T11:41:55.764Z,3.45
2022-08-11T11:44:24.889Z,5.28
2022-08-11T11:46:56.594Z,5.72
2022-08-11T11:49:29.014Z,4.20
2022-08-11T11:51:58.834Z,4.75
2022-08-11T11:54:33.713Z,3.25
2022-08-11T11:57:26.081Z,4.60
2022-08-11T12:00:12.755Z,4.05
2022-08-11T12:02:43.040Z,3.80
2022-08-11T12:05:12.888Z,4.35
2022-08-11T12:08:12.633Z,3.90
2022-08-11T12:10:46.385Z,4.93
2022-08-11T12:13:34.073Z,4.60
2022-08-11T12:16:33.125Z,5.32
2022-08-11T12:18:54.820Z,6.15
2022-08-11T12:21:24.281Z,3.75
2022-08-11T12:24:10.352Z,2.47
2022-08-11T12:27:14.658Z,3.63
2022-08-11T12:29:44.074Z,7.13
2022-08-11T12:32:12.693Z,7.18
2022-08-11T12:34:40.770Z,6.38
2022-08-11T12:37:13.510Z,4.07
2022-08-11T12:40:16.264Z,2.25
2022-08-11T12:43:21.072Z,5.55
2022-08-11T12:45:58.292Z,3.50
2022-08-11T12:48:58.720Z,3.13
2022-08-11T12:52:11.466Z,4.65
2022-08-11T12:54:57.144Z,4.90
2022-08-11T12:57:46.950Z,2.95
2022-08-11T13:00:35.016Z,9.95
2022-08-11T13:03:21.472Z,3.80
2022-08-11T13:05:53.137Z,3.80
2022-08-11T13:08:23.081Z,3.57
2022-08-11T13:11:09.903Z,2.88
2022-08-11T13:13:54.949Z,4.30
2022-08-11T13:16:29.162Z,3.72
2022-08-11T13:18:58.632Z,4.15
2022-08-11T13:21:28.456Z,3.05
2022-08-11T13:24:00.758Z,3.42
2022-08-11T13:26:48.191Z,4.75
2022-08-11T13:29:22.936Z,3.65
2022-08-11T13:31:54.942Z,4.00
2022-08-11T13:34:25.191Z,3.55
2022-08-11T13:36:55.487Z,2.88
2022-08-11T13:39:25.031Z,6.78
2022-08-11T13:41:56.506Z,3.20
2022-08-11T13:44:28.083Z,2.63
2022-08-11T13:47:01.046Z,5.33
2022-08-11T13:49:30.593Z,2.95
2022-08-11T13:51:59.549Z,4.47
2022-08-11T13:54:30.944Z,3.33
2022-08-11T13:57:04.089Z,4.07
2022-08-11T13:59:52.110Z,2.50
2022-08-11T14:02:30.201Z,3.92
2022-08-11T14:05:03.981Z,4.22
2022-08-11T14:07:36.439Z,5.72
2022-08-11T14:10:07.078Z,5.63
2022-08-11T14:12:55.505Z,3.33
2022-08-11T14:15:25.333Z,3.58
2022-08-11T14:18:01.114Z,3.03
2022-08-11T14:20:52.825Z,3.25
2022-08-11T14:23:26.152Z,4.88
2022-08-11T14:26:12.933Z,3.08
2022-08-11T14:28:45.113Z,3.90
2022-08-11T14:31:15.749Z,4.80
2022-08-11T14:34:00.948Z,5.22
2022-08-11T14:36:33.892Z,3.20
2022-08-11T14:39:05.144Z,6.55
2022-08-11T14:42:11.893Z,5.57
2022-08-11T14:44:57.626Z,4.40
2022-08-11T14:47:26.745Z,3.15
2022-08-11T14:50:10.267Z,2.28
2022-08-11T14:52:44.574Z,3.92
2022-08-11T14:55:31.861Z,3.92
2022-08-11T14:58:01.704Z,3.17
2022-08-11T15:00:30.254Z,2.67
2022-08-11T15:03:11.542Z,4.28
2022-08-11T15:05:56.194Z,4.05
2022-08-11T15:08:41.416Z,4.90
2022-08-11T15:11:32.173Z,4.35
2022-08-11T15:14:01.419Z,3.40
2022-08-11T15:16:48.109Z,4.30
2022-08-11T15:19:16.695Z,4.00
2022-08-11T15:22:03.629Z,4.10
2022-08-11T15:24:33.531Z,4.38
2022-08-11T15:27:20.086Z,4.63
2022-08-11T15:30:06.525Z,2.33
2022-08-11T15:32:53.232Z,4.30
2022-08-11T15:35:39.793Z,4.90
2022-08-11T15:38:14.020Z,3.22
2022-08-11T15:41:01.685Z,3.10
2022-08-11T15:43:51.378Z,5.63
2022-08-11T15:46:24.459Z,2.63
2022-08-11T15:48:58.928Z,5.28
2022-08-11T15:51:34.528Z,2.97
2022-08-11T15:54:09.455Z,4.22
2022-08-11T15:56:41.001Z,4.68
2022-08-11T15:59:43.007Z,3.25
2022-08-11T16:02:33.002Z,3.78
2022-08-11T16:05:07.247Z,3.83
2022-08-11T16:07:40.847Z,2.92
2022-08-11T16:10:19.346Z,4.00
2022-08-11T16:13:22.405Z,3.38
2022-08-11T16:16:10.888Z,5.68
2022-08-11T16:18:47.030Z,3.47
2022-08-11T16:21:33.481Z,6.03
2022-08-11T16:24:06.975Z,6.15
2022-08-11T16:27:09.295Z,4.13
2022-08-11T16:29:32.092Z,2.55
2022-08-11T16:32:20.590Z,2.17
2022-08-11T16:35:13.173Z,3.88
2022-08-11T16:38:00.124Z,3.85
2022-08-11T16:40:29.420Z,7.03
2022-08-11T16:43:18.207Z,9.32
2022-08-11T16:46:04.272Z,2.90
2022-08-11T16:48:38.255Z,6.57
2022-08-11T16:51:08.026Z,5.78
2022-08-11T16:54:00.131Z,4.30
2022-08-11T16:56:29.082Z,3.92
2022-08-11T16:59:16.308Z,11.00
2022-08-11T17:01:55.471Z,3.03
2022-08-11T17:04:48.698Z,4.55
2022-08-11T17:07:41.691Z,3.25
2022-08-11T17:10:51.924Z,3.55
2022-08-11T17:13:25.170Z,6.25
2022-08-11T17:16:07.913Z,8.13
2022-08-11T17:18:42.938Z,5.47
2022-08-11T17:21:14.771Z,4.18
2022-08-11T17:23:49.914Z,4.43
2022-08-11T17:26:27.707Z,4.07
2022-08-11T17:28:59.127Z,4.43
2022-08-11T17:31:47.923Z,4.55
2022-08-11T17:34:33.703Z,5.53
2022-08-11T17:37:02.203Z,6.57
2022-08-11T17:39:32.683Z,2.50
2022-08-11T17:42:20.064Z,5.68
2022-08-11T17:45:07.580Z,7.03
2022-08-11T17:47:54.652Z,6.03
2022-08-11T17:50:23.216Z,4.43
2022-08-11T17:53:10.095Z,8.35
2022-08-11T17:55:57.792Z,6.65
2022-08-11T17:58:45.371Z,5.05
2022-08-11T18:01:15.028Z,5.72
2022-08-11T18:03:57.654Z,4.65
2022-08-11T18:06:33.703Z,5.30
2022-08-11T18:09:22.874Z,7.32
2022-08-11T18:12:12.823Z,4.05
2022-08-11T18:15:00.500Z,4.32
2022-08-11T18:17:46.144Z,3.70
2022-08-11T18:20:33.333Z,6.28
2022-08-11T18:23:46.282Z,6.25
2022-08-11T18:26:30.664Z,3.20
2022-08-11T18:29:17.920Z,8.82
2022-08-11T18:32:08.103Z,6.32
2022-08-11T18:34:58.912Z,13.38
2022-08-11T18:37:49.447Z,23.33
2022-08-11T18:40:38.566Z,8.82
2022-08-11T18:43:27.785Z,10.02
2022-08-11T18:46:19.267Z,7.13
2022-08-11T18:49:13.253Z,5.18
2022-08-11T18:52:05.739Z,16.40
2022-08-11T18:54:55.210Z,11.68
2022-08-11T18:57:53.830Z,5.68
2022-08-11T19:00:41.751Z,5.95
2022-08-11T19:03:29.646Z,6.82
2022-08-11T19:06:38.478Z,7.85
2022-08-11T19:09:26.123Z,6.82
2022-08-11T19:12:14.685Z,7.47
2022-08-11T19:15:01.732Z,8.05
2022-08-11T19:17:49.720Z,5.20
2022-08-11T19:20:39.769Z,3.85
2022-08-11T19:23:29.154Z,6.03
2022-08-11T19:26:16.502Z,7.72
2022-08-11T19:29:06.390Z,6.90
2022-08-11T19:31:52.661Z,7.03
2022-08-11T19:34:42.884Z,6.78
2022-08-11T19:37:29.567Z,5.88
2022-08-11T19:40:19.210Z,6.03
2022-08-11T19:43:18.812Z,4.60
2022-08-11T19:46:15.969Z,4.28
2022-08-11T19:49:03.271Z,3.90
2022-08-11T19:51:54.021Z,7.80
2022-08-11T19:54:43.229Z,8.15
2022-08-11T19:57:29.261Z,4.70
2022-08-11T20:00:15.294Z,5.10
2022-08-11T20:03:05.988Z,5.28
2022-08-11T20:05:59.986Z,4.43
2022-08-11T20:08:47.457Z,6.47
2022-08-11T20:11:35.963Z,5.32
2022-08-11T20:14:23.512Z,23.10
2022-08-11T20:17:11.536Z,7.25
2022-08-11T20:22:49.100Z,9.10
2022-08-11T20:25:36.492Z,7.70
2022-08-11T20:28:24.013Z,12.18
2022-08-11T20:31:10.586Z,7.15
2022-08-11T20:33:57.142Z,8.27
2022-08-11T20:36:47.597Z,10.48
2022-08-11T20:39:42.257Z,9.55
2022-08-11T20:42:31.004Z,10.98
2022-08-11T20:45:23.450Z,11.18
2022-08-11T20:48:10.649Z,9.13
2022-08-11T20:51:06.249Z,7.10
2022-08-11T20:53:57.233Z,7.45
2022-08-11T20:56:45.522Z,6.85
2022-08-11T20:59:38.501Z,8.27
2022-08-11T21:02:40.907Z,9.32
2022-08-11T21:06:10.350Z,14.98
2022-08-11T21:08:36.409Z,12.32
2022-08-11T21:11:27.611Z,20.10
2022-08-11T21:14:15.674Z,13.68
2022-08-11T21:17:04.450Z,14.10
2022-08-11T21:20:20.319Z,11.95
2022-08-11T21:23:19.908Z,9.73
2022-08-11T21:26:24.406Z,9.45
2022-08-11T21:29:16.929Z,13.60
2022-08-11T21:32:08.268Z,12.87
2022-08-11T21:34:58.482Z,16.45
2022-08-11T21:37:50.306Z,11.25
2022-08-11T21:40:42.657Z,11.00
2022-08-11T21:43:35.590Z,10.60
2022-08-11T21:46:27.093Z,14.70
2022-08-11T21:49:19.781Z,8.38
2022-08-11T21:52:05.518Z,7.32
2022-08-11T21:54:51.197Z,9.48
2022-08-11T21:57:37.285Z,10.30
2022-08-11T22:00:33.749Z,8.02
2022-08-11T22:03:21.049Z,7.82
2022-08-11T22:06:07.249Z,9.35
2022-08-11T22:08:52.920Z,10.98
2022-08-11T22:11:39.200Z,12.35
2022-08-11T22:14:28.368Z,10.65
2022-08-11T22:17:14.247Z,9.65
2022-08-11T22:20:02.461Z,7.80
2022-08-11T22:22:52.700Z,9.13
2022-08-11T22:25:49.937Z,7.75
2022-08-11T22:28:38.408Z,13.63
2022-08-11T22:31:25.531Z,9.07
2022-08-11T22:34:11.502Z,10.38
2022-08-11T22:37:00.486Z,5.55
2022-08-11T22:40:01.772Z,15.23
2022-08-11T22:42:49.166Z,15.90
2022-08-11T22:45:34.875Z,9.75
2022-08-11T22:48:23.048Z,15.57
2022-08-11T22:51:09.879Z,25.65
2022-08-11T22:53:59.117Z,13.02
2022-08-11T22:56:46.254Z,16.75
2022-08-11T22:59:32.572Z,15.95
2022-08-11T23:02:18.803Z,8.40
2022-08-11T23:05:05.899Z,15.60
2022-08-11T23:07:52.108Z,13.68
2022-08-11T23:10:40.351Z,14.55
2022-08-11T23:13:26.815Z,13.93
2022-08-11T23:16:13.869Z,9.98
2022-08-11T23:18:59.986Z,13.65
2022-08-11T23:21:46.931Z,11.50
2022-08-11T23:24:32.691Z,9.75
2022-08-11T23:27:21.511Z,11.85
2022-08-11T23:30:09.333Z,10.35
2022-08-11T23:32:57.227Z,14.35
2022-08-11T23:35:53.976Z,14.10
2022-08-11T23:38:42.752Z,13.90
2022-08-11T23:41:29.265Z,17.95
2022-08-11T23:44:17.077Z,10.35
2022-08-11T23:47:03.103Z,14.43
2022-08-11T23:49:48.651Z,13.40
2022-08-11T23:52:35.230Z,15.48
2022-08-11T23:55:21.392Z,16.00
2022-08-11T23:58:07.356Z,13.77
